sensor_id;sensor_type;location;lat;lon;timestamp;P1;durP1;ratioP1;P2;durP2;ratioP2
29954;SDS011;16812;51.168;6.840;2022-08-04T00:01:16;6.20;;;2.90;;
29954;SDS011;16812;51.168;6.840;2022-08-04T00:03:47;4.50;;;2.50;;
29954;SDS011;16812;51.168;6.840;2022-08-04T00:06:23;14.17;;;2.90;;
29954;SDS011;16812;51.168;6.840;2022-08-04T00:08:55;5.70;;;2.70;;
29954;SDS011;16812;51.168;6.840;2022-08-04T00:11:23;13.20;;;3.27;;
29954;SDS011;16812;51.168;6.840;2022-08-04T00:13:52;5.50;;;2.67;;
29954;SDS011;16812;51.168;6.840;2022-08-04T00:16:29;6.73;;;2.40;;
29954;SDS011;16812;51.168;6.840;2022-08-04T00:19:05;9.93;;;2.70;;
29954;SDS011;16812;51.168;6.840;2022-08-04T00:21:37;8.23;;;3.00;;
29954;SDS011;16812;51.168;6.840;2022-08-04T00:24:05;12.67;;;3.20;;
29954;SDS011;16812;51.168;6.840;2022-08-04T00:26:38;4.53;;;2.47;;
29954;SDS011;16812;51.168;6.840;2022-08-04T00:29:05;6.23;;;2.13;;
29954;SDS011;16812;51.168;6.840;2022-08-04T00:31:32;10.37;;;2.77;;
29954;SDS011;16812;51.168;6.840;2022-08-04T00:34:19;5.67;;;2.60;;
29954;SDS011;16812;51.168;6.840;2022-08-04T00:36:48;7.10;;;2.47;;
29954;SDS011;16812;51.168;6.840;2022-08-04T00:39:15;5.20;;;2.87;;
29954;SDS011;16812;51.168;6.840;2022-08-04T00:41:48;7.07;;;2.27;;
29954;SDS011;16812;51.168;6.840;2022-08-04T00:44:25;5.17;;;2.97;;
29954;SDS011;16812;51.168;6.840;2022-08-04T00:47:08;6.73;;;2.50;;
29954;SDS011;16812;51.168;6.840;2022-08-04T00:49:42;13.13;;;2.80;;
29954;SDS011;16812;51.168;6.840;2022-08-04T00:52:20;10.07;;;3.23;;
29954;SDS011;16812;51.168;6.840;2022-08-04T00:55:03;5.43;;;2.00;;
29954;SDS011;16812;51.168;6.840;2022-08-04T00:57:38;4.90;;;2.33;;
29954;SDS011;16812;51.168;6.840;2022-08-04T01:00:07;8.93;;;2.70;;
29954;SDS011;16812;51.168;6.840;2022-08-04T01:02:35;6.60;;;2.57;;
29954;SDS011;16812;51.168;6.840;2022-08-04T01:05:04;7.80;;;2.30;;
29954;SDS011;16812;51.168;6.840;2022-08-04T01:10:21;7.70;;;2.70;;
29954;SDS011;16812;51.168;6.840;2022-08-04T01:12:54;7.27;;;3.30;;
29954;SDS011;16812;51.168;6.840;2022-08-04T01:15:28;6.90;;;2.43;;
29954;SDS011;16812;51.168;6.840;2022-08-04T01:18:19;7.50;;;3.00;;
29954;SDS011;16812;51.168;6.840;2022-08-04T01:20:47;5.57;;;2.13;;
29954;SDS011;16812;51.168;6.840;2022-08-04T01:26:25;10.43;;;3.03;;
29954;SDS011;16812;51.168;6.840;2022-08-04T01:29:11;6.50;;;3.13;;
29954;SDS011;16812;51.168;6.840;2022-08-04T01:31:45;5.20;;;2.90;;
29954;SDS011;16812;51.168;6.840;2022-08-04T01:34:15;4.43;;;2.43;;
29954;SDS011;16812;51.168;6.840;2022-08-04T01:36:44;10.63;;;2.77;;
29954;SDS011;16812;51.168;6.840;2022-08-04T01:39:15;5.30;;;2.33;;
29954;SDS011;16812;51.168;6.840;2022-08-04T01:41:43;7.10;;;3.30;;
29954;SDS011;16812;51.168;6.840;2022-08-04T01:44:25;7.87;;;2.77;;
29954;SDS011;16812;51.168;6.840;2022-08-04T01:46:52;8.37;;;2.90;;
29954;SDS011;16812;51.168;6.840;2022-08-04T01:49:20;4.90;;;2.30;;
29954;SDS011;16812;51.168;6.840;2022-08-04T01:51:49;11.67;;;2.40;;
29954;SDS011;16812;51.168;6.840;2022-08-04T01:54:16;5.60;;;1.97;;
29954;SDS011;16812;51.168;6.840;2022-08-04T01:56:44;6.50;;;2.60;;
29954;SDS011;16812;51.168;6.840;2022-08-04T01:59:13;6.57;;;2.10;;
29954;SDS011;16812;51.168;6.840;2022-08-04T02:01:42;10.67;;;2.80;;
29954;SDS011;16812;51.168;6.840;2022-08-04T02:04:12;5.37;;;2.63;;
29954;SDS011;16812;51.168;6.840;2022-08-04T02:06:49;7.50;;;2.93;;
29954;SDS011;16812;51.168;6.840;2022-08-04T02:09:21;7.73;;;2.80;;
29954;SDS011;16812;51.168;6.840;2022-08-04T02:11:51;6.20;;;2.50;;
29954;SDS011;16812;51.168;6.840;2022-08-04T02:14:23;6.90;;;3.50;;
29954;SDS011;16812;51.168;6.840;2022-08-04T02:16:52;5.47;;;2.37;;
29954;SDS011;16812;51.168;6.840;2022-08-04T02:19:21;8.83;;;2.90;;
29954;SDS011;16812;51.168;6.840;2022-08-04T02:21:51;6.00;;;2.30;;
29954;SDS011;16812;51.168;6.840;2022-08-04T02:24:24;6.73;;;2.30;;
29954;SDS011;16812;51.168;6.840;2022-08-04T02:26:52;3.80;;;2.17;;
29954;SDS011;16812;51.168;6.840;2022-08-04T02:29:24;9.53;;;3.40;;
29954;SDS011;16812;51.168;6.840;2022-08-04T02:31:59;4.73;;;2.20;;
29954;SDS011;16812;51.168;6.840;2022-08-04T02:34:31;14.13;;;3.17;;
29954;SDS011;16812;51.168;6.840;2022-08-04T02:37:00;6.90;;;2.27;;
29954;SDS011;16812;51.168;6.840;2022-08-04T02:39:30;8.30;;;3.03;;
29954;SDS011;16812;51.168;6.840;2022-08-04T02:42:13;6.57;;;2.10;;
29954;SDS011;16812;51.168;6.840;2022-08-04T02:44:41;8.67;;;3.60;;
29954;SDS011;16812;51.168;6.840;2022-08-04T02:47:10;6.07;;;2.40;;
29954;SDS011;16812;51.168;6.840;2022-08-04T02:49:37;5.97;;;2.20;;
29954;SDS011;16812;51.168;6.840;2022-08-04T02:52:06;4.27;;;2.10;;
29954;SDS011;16812;51.168;6.840;2022-08-04T02:54:37;13.93;;;2.70;;
29954;SDS011;16812;51.168;6.840;2022-08-04T02:57:06;6.17;;;2.40;;
29954;SDS011;16812;51.168;6.840;2022-08-04T02:59:37;6.20;;;2.80;;
29954;SDS011;16812;51.168;6.840;2022-08-04T03:02:10;5.87;;;2.67;;
29954;SDS011;16812;51.168;6.840;2022-08-04T03:04:42;6.10;;;3.03;;
29954;SDS011;16812;51.168;6.840;2022-08-04T03:07:21;4.20;;;2.30;;
29954;SDS011;16812;51.168;6.840;2022-08-04T03:09:54;10.17;;;3.70;;
29954;SDS011;16812;51.168;6.840;2022-08-04T03:15:18;6.83;;;2.73;;
29954;SDS011;16812;51.168;6.840;2022-08-04T03:18:08;4.57;;;2.90;;
29954;SDS011;16812;51.168;6.840;2022-08-04T03:23:39;8.17;;;3.50;;
29954;SDS011;16812;51.168;6.840;2022-08-04T03:26:13;8.07;;;2.60;;
29954;SDS011;16812;51.168;6.840;2022-08-04T03:29:08;11.23;;;2.93;;
29954;SDS011;16812;51.168;6.840;2022-08-04T03:32:08;7.90;;;3.57;;
29954;SDS011;16812;51.168;6.840;2022-08-04T03:34:44;4.77;;;2.90;;
29954;SDS011;16812;51.168;6.840;2022-08-04T03:37:23;5.87;;;3.00;;
29954;SDS011;16812;51.168;6.840;2022-08-04T03:40:00;7.10;;;2.77;;
29954;SDS011;16812;51.168;6.840;2022-08-04T03:45:27;5.00;;;3.87;;
29954;SDS011;16812;51.168;6.840;2022-08-04T03:48:07;7.23;;;3.23;;
29954;SDS011;16812;51.168;6.840;2022-08-04T03:53:32;5.50;;;3.27;;
29954;SDS011;16812;51.168;6.840;2022-08-04T03:56:15;4.63;;;3.20;;
29954;SDS011;16812;51.168;6.840;2022-08-04T03:58:56;5.33;;;3.40;;
29954;SDS011;16812;51.168;6.840;2022-08-04T04:01:34;6.10;;;3.30;;
29954;SDS011;16812;51.168;6.840;2022-08-04T04:04:36;5.47;;;3.27;;
29954;SDS011;16812;51.168;6.840;2022-08-04T04:07:19;5.87;;;3.20;;
29954;SDS011;16812;51.168;6.840;2022-08-04T04:15:49;4.77;;;3.33;;
29954;SDS011;16812;51.168;6.840;2022-08-04T04:18:24;7.30;;;3.73;;
29954;SDS011;16812;51.168;6.840;2022-08-04T04:20:57;7.50;;;3.90;;
29954;SDS011;16812;51.168;6.840;2022-08-04T04:23:43;5.93;;;3.97;;
29954;SDS011;16812;51.168;6.840;2022-08-04T04:26:20;7.27;;;4.10;;
29954;SDS011;16812;51.168;6.840;2022-08-04T04:28:57;8.30;;;3.90;;
29954;SDS011;16812;51.168;6.840;2022-08-04T04:31:40;8.10;;;4.40;;
29954;SDS011;16812;51.168;6.840;2022-08-04T04:34:15;7.23;;;3.90;;
29954;SDS011;16812;51.168;6.840;2022-08-04T04:36:49;10.27;;;4.70;;
29954;SDS011;16812;51.168;6.840;2022-08-04T04:39:22;5.43;;;4.27;;
29954;SDS011;16812;51.168;6.840;2022-08-04T04:47:48;8.43;;;3.90;;
29954;SDS011;16812;51.168;6.840;2022-08-04T04:50:37;9.83;;;3.30;;
29954;SDS011;16812;51.168;6.840;2022-08-04T04:53:12;5.40;;;3.50;;
29954;SDS011;16812;51.168;6.840;2022-08-04T04:55:43;8.70;;;3.57;;
29954;SDS011;16812;51.168;6.840;2022-08-04T04:58:14;5.30;;;3.50;;
29954;SDS011;16812;51.168;6.840;2022-08-04T05:00:48;9.73;;;4.37;;
29954;SDS011;16812;51.168;6.840;2022-08-04T05:03:22;5.27;;;3.47;;
29954;SDS011;16812;51.168;6.840;2022-08-04T05:05:58;7.27;;;4.40;;
29954;SDS011;16812;51.168;6.840;2022-08-04T05:11:24;4.87;;;3.83;;
29954;SDS011;16812;51.168;6.840;2022-08-04T05:13:57;6.73;;;3.87;;
29954;SDS011;16812;51.168;6.840;2022-08-04T05:16:45;8.80;;;4.63;;
29954;SDS011;16812;51.168;6.840;2022-08-04T05:19:18;5.77;;;4.00;;
29954;SDS011;16812;51.168;6.840;2022-08-04T05:21:47;7.17;;;4.23;;
29954;SDS011;16812;51.168;6.840;2022-08-04T05:24:16;10.27;;;4.63;;
29954;SDS011;16812;51.168;6.840;2022-08-04T05:26:45;6.07;;;4.50;;
29954;SDS011;16812;51.168;6.840;2022-08-04T05:29:16;4.53;;;3.67;;
29954;SDS011;16812;51.168;6.840;2022-08-04T05:31:45;6.43;;;3.93;;
29954;SDS011;16812;51.168;6.840;2022-08-04T05:34:20;5.13;;;3.67;;
29954;SDS011;16812;51.168;6.840;2022-08-04T05:36:48;5.30;;;3.40;;
29954;SDS011;16812;51.168;6.840;2022-08-04T05:39:18;4.53;;;3.70;;
29954;SDS011;16812;51.168;6.840;2022-08-04T05:41:45;5.53;;;3.70;;
29954;SDS011;16812;51.168;6.840;2022-08-04T05:44:23;7.30;;;4.30;;
29954;SDS011;16812;51.168;6.840;2022-08-04T05:46:53;6.53;;;4.27;;
29954;SDS011;16812;51.168;6.840;2022-08-04T05:49:22;7.00;;;3.80;;
29954;SDS011;16812;51.168;6.840;2022-08-04T05:51:51;8.77;;;4.60;;
29954;SDS011;16812;51.168;6.840;2022-08-04T05:54:18;6.37;;;3.60;;
29954;SDS011;16812;51.168;6.840;2022-08-04T05:56:46;7.97;;;3.93;;
29954;SDS011;16812;51.168;6.840;2022-08-04T05:59:13;7.13;;;3.80;;
29954;SDS011;16812;51.168;6.840;2022-08-04T06:01:41;8.30;;;3.37;;
29954;SDS011;16812;51.168;6.840;2022-08-04T06:04:23;5.57;;;3.30;;
29954;SDS011;16812;51.168;6.840;2022-08-04T06:06:51;7.60;;;3.60;;
29954;SDS011;16812;51.168;6.840;2022-08-04T06:09:18;6.43;;;3.60;;
29954;SDS011;16812;51.168;6.840;2022-08-04T06:11:46;5.40;;;3.93;;
29954;SDS011;16812;51.168;6.840;2022-08-04T06:14:30;9.40;;;4.70;;
29954;SDS011;16812;51.168;6.840;2022-08-04T06:16:58;4.13;;;3.17;;
29954;SDS011;16812;51.168;6.840;2022-08-04T06:19:29;4.40;;;3.73;;
29954;SDS011;16812;51.168;6.840;2022-08-04T06:22:20;4.30;;;3.80;;
29954;SDS011;16812;51.168;6.840;2022-08-04T06:24:49;5.87;;;3.87;;
29954;SDS011;16812;51.168;6.840;2022-08-04T06:27:17;7.23;;;3.53;;
29954;SDS011;16812;51.168;6.840;2022-08-04T06:29:48;3.90;;;3.27;;
29954;SDS011;16812;51.168;6.840;2022-08-04T06:32:17;6.20;;;3.90;;
29954;SDS011;16812;51.168;6.840;2022-08-04T06:34:59;6.03;;;4.13;;
29954;SDS011;16812;51.168;6.840;2022-08-04T06:37:27;8.80;;;4.57;;
29954;SDS011;16812;51.168;6.840;2022-08-04T06:40:09;7.03;;;4.17;;
29954;SDS011;16812;51.168;6.840;2022-08-04T06:42:57;7.03;;;4.07;;
29954;SDS011;16812;51.168;6.840;2022-08-04T06:45:24;5.83;;;4.40;;
29954;SDS011;16812;51.168;6.840;2022-08-04T06:47:52;4.77;;;3.93;;
29954;SDS011;16812;51.168;6.840;2022-08-04T06:50:21;5.57;;;4.37;;
29954;SDS011;16812;51.168;6.840;2022-08-04T06:53:08;7.43;;;4.60;;
29954;SDS011;16812;51.168;6.840;2022-08-04T06:55:36;9.37;;;4.70;;
29954;SDS011;16812;51.168;6.840;2022-08-04T06:58:04;6.67;;;4.37;;
29954;SDS011;16812;51.168;6.840;2022-08-04T07:00:31;6.33;;;4.00;;
29954;SDS011;16812;51.168;6.840;2022-08-04T07:03:00;7.93;;;4.30;;
29954;SDS011;16812;51.168;6.840;2022-08-04T07:05:29;7.50;;;4.40;;
29954;SDS011;16812;51.168;6.840;2022-08-04T07:07:56;11.23;;;4.87;;
29954;SDS011;16812;51.168;6.840;2022-08-04T07:10:24;6.73;;;4.20;;
29954;SDS011;16812;51.168;6.840;2022-08-04T07:12:52;6.72;;;4.60;;
29954;SDS011;16812;51.168;6.840;2022-08-04T07:15:19;8.00;;;4.83;;
29954;SDS011;16812;51.168;6.840;2022-08-04T07:17:47;5.23;;;4.40;;
29954;SDS011;16812;51.168;6.840;2022-08-04T07:20:17;8.00;;;4.80;;
29954;SDS011;16812;51.168;6.840;2022-08-04T07:23:02;14.83;;;4.60;;
29954;SDS011;16812;51.168;6.840;2022-08-04T07:25:30;10.90;;;4.43;;
29954;SDS011;16812;51.168;6.840;2022-08-04T07:28:17;11.90;;;4.60;;
29954;SDS011;16812;51.168;6.840;2022-08-04T07:30:44;7.10;;;4.07;;
29954;SDS011;16812;51.168;6.840;2022-08-04T07:33:13;5.50;;;3.53;;
29954;SDS011;16812;51.168;6.840;2022-08-04T07:35:40;6.30;;;4.40;;
29954;SDS011;16812;51.168;6.840;2022-08-04T07:38:29;4.60;;;3.97;;
29954;SDS011;16812;51.168;6.840;2022-08-04T07:40:57;8.77;;;4.32;;
29954;SDS011;16812;51.168;6.840;2022-08-04T07:43:24;6.38;;;4.22;;
29954;SDS011;16812;51.168;6.840;2022-08-04T07:45:52;8.52;;;3.47;;
29954;SDS011;16812;51.168;6.840;2022-08-04T07:48:19;7.68;;;4.20;;
29954;SDS011;16812;51.168;6.840;2022-08-04T07:50:47;5.30;;;3.70;;
29954;SDS011;16812;51.168;6.840;2022-08-04T07:53:14;5.95;;;3.90;;
29954;SDS011;16812;51.168;6.840;2022-08-04T07:56:03;7.85;;;4.45;;
29954;SDS011;16812;51.168;6.840;2022-08-04T07:58:30;6.45;;;3.90;;
29954;SDS011;16812;51.168;6.840;2022-08-04T08:00:58;5.55;;;3.78;;
29954;SDS011;16812;51.168;6.840;2022-08-04T08:03:25;6.43;;;3.45;;
29954;SDS011;16812;51.168;6.840;2022-08-04T08:05:53;9.82;;;3.45;;
29954;SDS011;16812;51.168;6.840;2022-08-04T08:08:40;4.30;;;3.20;;
29954;SDS011;16812;51.168;6.840;2022-08-04T08:11:08;7.18;;;3.33;;
29954;SDS011;16812;51.168;6.840;2022-08-04T08:13:36;4.90;;;3.33;;
29954;SDS011;16812;51.168;6.840;2022-08-04T08:16:03;6.20;;;2.95;;
29954;SDS011;16812;51.168;6.840;2022-08-04T08:18:31;3.70;;;3.33;;
29954;SDS011;16812;51.168;6.840;2022-08-04T08:20:58;11.57;;;2.78;;
29954;SDS011;16812;51.168;6.840;2022-08-04T08:23:26;5.53;;;3.80;;
29954;SDS011;16812;51.168;6.840;2022-08-04T08:25:56;4.82;;;3.22;;
29954;SDS011;16812;51.168;6.840;2022-08-04T08:28:24;5.88;;;3.60;;
29954;SDS011;16812;51.168;6.840;2022-08-04T08:30:52;4.07;;;3.30;;
29954;SDS011;16812;51.168;6.840;2022-08-04T08:33:24;5.03;;;3.38;;
29954;SDS011;16812;51.168;6.840;2022-08-04T08:35:53;8.45;;;3.30;;
29954;SDS011;16812;51.168;6.840;2022-08-04T08:38:25;6.45;;;3.13;;
29954;SDS011;16812;51.168;6.840;2022-08-04T08:40:55;3.75;;;3.25;;
29954;SDS011;16812;51.168;6.840;2022-08-04T08:43:32;4.28;;;2.80;;
29954;SDS011;16812;51.168;6.840;2022-08-04T08:46:29;3.13;;;2.47;;
29954;SDS011;16812;51.168;6.840;2022-08-04T08:49:26;3.65;;;2.70;;
29954;SDS011;16812;51.168;6.840;2022-08-04T08:52:19;4.38;;;2.85;;
29954;SDS011;16812;51.168;6.840;2022-08-04T08:55:19;5.70;;;2.65;;
29954;SDS011;16812;51.168;6.840;2022-08-04T08:57:53;4.75;;;3.97;;
29954;SDS011;16812;51.168;6.840;2022-08-04T09:00:32;4.43;;;2.85;;
29954;SDS011;16812;51.168;6.840;2022-08-04T09:05:49;4.72;;;3.40;;
29954;SDS011;16812;51.168;6.840;2022-08-04T09:08:24;5.85;;;3.05;;
29954;SDS011;16812;51.168;6.840;2022-08-04T09:10:53;3.45;;;3.15;;
29954;SDS011;16812;51.168;6.840;2022-08-04T09:13:22;4.20;;;3.38;;
29954;SDS011;16812;51.168;6.840;2022-08-04T09:15:53;5.50;;;3.47;;
29954;SDS011;16812;51.168;6.840;2022-08-04T09:18:24;3.38;;;3.08;;
29954;SDS011;16812;51.168;6.840;2022-08-04T09:20:53;5.30;;;3.17;;
29954;SDS011;16812;51.168;6.840;2022-08-04T09:23:23;5.53;;;2.90;;
29954;SDS011;16812;51.168;6.840;2022-08-04T09:25:56;5.07;;;3.10;;
29954;SDS011;16812;51.168;6.840;2022-08-04T09:28:24;3.15;;;2.85;;
29954;SDS011;16812;51.168;6.840;2022-08-04T09:31:14;3.58;;;3.28;;
29954;SDS011;16812;51.168;6.840;2022-08-04T09:33:46;3.20;;;2.90;;
29954;SDS011;16812;51.168;6.840;2022-08-04T09:36:19;2.95;;;2.70;;
29954;SDS011;16812;51.168;6.840;2022-08-04T09:38:59;11.50;;;3.05;;
29954;SDS011;16812;51.168;6.840;2022-08-04T09:41:30;2.92;;;2.72;;
29954;SDS011;16812;51.168;6.840;2022-08-04T09:44:18;5.00;;;3.05;;
29954;SDS011;16812;51.168;6.840;2022-08-04T09:47:09;4.25;;;3.08;;
29954;SDS011;16812;51.168;6.840;2022-08-04T09:49:40;2.72;;;2.47;;
29954;SDS011;16812;51.168;6.840;2022-08-04T09:52:10;3.33;;;2.63;;
29954;SDS011;16812;51.168;6.840;2022-08-04T09:54:44;2.40;;;2.20;;
29954;SDS011;16812;51.168;6.840;2022-08-04T09:57:16;7.78;;;2.90;;
29954;SDS011;16812;51.168;6.840;2022-08-04T09:59:52;3.92;;;2.63;;
29954;SDS011;16812;51.168;6.840;2022-08-04T10:02:21;3.63;;;2.60;;
29954;SDS011;16812;51.168;6.840;2022-08-04T10:04:50;3.03;;;2.30;;
29954;SDS011;16812;51.168;6.840;2022-08-04T10:07:23;6.35;;;3.22;;
29954;SDS011;16812;51.168;6.840;2022-08-04T10:09:56;4.78;;;2.53;;
29954;SDS011;16812;51.168;6.840;2022-08-04T10:12:28;11.18;;;2.67;;
29954;SDS011;16812;51.168;6.840;2022-08-04T10:15:01;7.45;;;2.65;;
29954;SDS011;16812;51.168;6.840;2022-08-04T10:17:33;4.15;;;2.08;;
29954;SDS011;16812;51.168;6.840;2022-08-04T10:20:10;10.02;;;2.97;;
29954;SDS011;16812;51.168;6.840;2022-08-04T10:23:03;7.28;;;2.35;;
29954;SDS011;16812;51.168;6.840;2022-08-04T10:25:41;8.70;;;2.88;;
29954;SDS011;16812;51.168;6.840;2022-08-04T10:28:32;5.88;;;2.58;;
29954;SDS011;16812;51.168;6.840;2022-08-04T10:31:02;6.50;;;2.40;;
29954;SDS011;16812;51.168;6.840;2022-08-04T10:33:33;5.38;;;2.00;;
29954;SDS011;16812;51.168;6.840;2022-08-04T10:36:03;4.07;;;2.40;;
29954;SDS011;16812;51.168;6.840;2022-08-04T10:38:33;5.75;;;2.10;;
29954;SDS011;16812;51.168;6.840;2022-08-04T10:41:04;6.47;;;2.30;;
29954;SDS011;16812;51.168;6.840;2022-08-04T10:43:40;11.10;;;2.10;;
29954;SDS011;16812;51.168;6.840;2022-08-04T10:46:09;5.55;;;2.88;;
29954;SDS011;16812;51.168;6.840;2022-08-04T10:48:40;8.23;;;2.60;;
29954;SDS011;16812;51.168;6.840;2022-08-04T10:51:14;4.32;;;2.20;;
29954;SDS011;16812;51.168;6.840;2022-08-04T10:53:44;6.00;;;2.53;;
29954;SDS011;16812;51.168;6.840;2022-08-04T10:56:12;4.65;;;2.45;;
29954;SDS011;16812;51.168;6.840;2022-08-04T10:58:43;6.18;;;2.35;;
29954;SDS011;16812;51.168;6.840;2022-08-04T11:01:14;5.30;;;2.60;;
29954;SDS011;16812;51.168;6.840;2022-08-04T11:04:06;3.80;;;2.38;;
29954;SDS011;16812;51.168;6.840;2022-08-04T11:06:34;4.80;;;2.40;;
29954;SDS011;16812;51.168;6.840;2022-08-04T11:09:02;4.25;;;2.45;;
29954;SDS011;16812;51.168;6.840;2022-08-04T11:11:40;2.45;;;1.67;;
29954;SDS011;16812;51.168;6.840;2022-08-04T11:14:28;5.53;;;2.22;;
29954;SDS011;16812;51.168;6.840;2022-08-04T11:16:59;5.28;;;2.30;;
29954;SDS011;16812;51.168;6.840;2022-08-04T11:19:30;4.50;;;2.03;;
29954;SDS011;16812;51.168;6.840;2022-08-04T11:22:14;2.72;;;2.30;;
29954;SDS011;16812;51.168;6.840;2022-08-04T11:24:44;2.30;;;2.03;;
29954;SDS011;16812;51.168;6.840;2022-08-04T11:27:12;5.82;;;2.42;;
29954;SDS011;16812;51.168;6.840;2022-08-04T11:29:43;5.82;;;2.40;;
29954;SDS011;16812;51.168;6.840;2022-08-04T11:32:12;5.72;;;2.38;;
29954;SDS011;16812;51.168;6.840;2022-08-04T11:34:46;5.55;;;2.35;;
29954;SDS011;16812;51.168;6.840;2022-08-04T11:37:20;5.40;;;2.47;;
29954;SDS011;16812;51.168;6.840;2022-08-04T11:39:49;4.47;;;2.28;;
29954;SDS011;16812;51.168;6.840;2022-08-04T11:42:17;3.35;;;2.30;;
29954;SDS011;16812;51.168;6.840;2022-08-04T11:44:46;5.55;;;2.58;;
29954;SDS011;16812;51.168;6.840;2022-08-04T11:47:18;5.72;;;2.60;;
29954;SDS011;16812;51.168;6.840;2022-08-04T11:49:48;4.93;;;2.53;;
29954;SDS011;16812;51.168;6.840;2022-08-04T11:52:23;3.92;;;2.72;;
29954;SDS011;16812;51.168;6.840;2022-08-04T11:54:51;3.33;;;2.72;;
29954;SDS011;16812;51.168;6.840;2022-08-04T11:57:20;6.55;;;2.45;;
29954;SDS011;16812;51.168;6.840;2022-08-04T11:59:51;6.97;;;2.85;;
29954;SDS011;16812;51.168;6.840;2022-08-04T12:02:29;6.38;;;2.30;;
29954;SDS011;16812;51.168;6.840;2022-08-04T12:05:00;10.02;;;2.80;;
29954;SDS011;16812;51.168;6.840;2022-08-04T12:07:33;9.45;;;2.97;;
29954;SDS011;16812;51.168;6.840;2022-08-04T12:10:10;4.95;;;2.30;;
29954;SDS011;16812;51.168;6.840;2022-08-04T12:12:41;5.65;;;2.53;;
29954;SDS011;16812;51.168;6.840;2022-08-04T12:15:11;2.90;;;2.20;;
29954;SDS011;16812;51.168;6.840;2022-08-04T12:17:42;3.05;;;2.30;;
29954;SDS011;16812;51.168;6.840;2022-08-04T12:20:21;6.43;;;2.35;;
29954;SDS011;16812;51.168;6.840;2022-08-04T12:23:08;7.75;;;2.70;;
29954;SDS011;16812;51.168;6.840;2022-08-04T12:25:39;7.25;;;2.88;;
29954;SDS011;16812;51.168;6.840;2022-08-04T12:28:11;4.95;;;2.80;;
29954;SDS011;16812;51.168;6.840;2022-08-04T12:30:41;7.90;;;2.55;;
29954;SDS011;16812;51.168;6.840;2022-08-04T12:33:28;7.10;;;2.28;;
29954;SDS011;16812;51.168;6.840;2022-08-04T12:36:20;5.72;;;2.67;;
29954;SDS011;16812;51.168;6.840;2022-08-04T12:38:49;5.05;;;2.65;;
29954;SDS011;16812;51.168;6.840;2022-08-04T12:41:22;4.32;;;2.50;;
29954;SDS011;16812;51.168;6.840;2022-08-04T12:43:49;4.00;;;2.85;;
29954;SDS011;16812;51.168;6.840;2022-08-04T12:46:18;4.53;;;2.20;;
29954;SDS011;16812;51.168;6.840;2022-08-04T12:48:46;6.18;;;2.53;;
29954;SDS011;16812;51.168;6.840;2022-08-04T12:51:14;4.28;;;2.60;;
29954;SDS011;16812;51.168;6.840;2022-08-04T12:54:03;3.80;;;2.45;;
29954;SDS011;16812;51.168;6.840;2022-08-04T12:56:30;7.72;;;2.20;;
29954;SDS011;16812;51.168;6.840;2022-08-04T12:58:59;11.30;;;2.78;;
29954;SDS011;16812;51.168;6.840;2022-08-04T13:01:27;10.98;;;3.17;;
29954;SDS011;16812;51.168;6.840;2022-08-04T13:04:15;5.95;;;3.13;;
29954;SDS011;16812;51.168;6.840;2022-08-04T13:06:42;7.15;;;3.08;;
29954;SDS011;16812;51.168;6.840;2022-08-04T13:09:17;4.85;;;2.78;;
29954;SDS011;16812;51.168;6.840;2022-08-04T13:11:46;9.52;;;2.80;;
29954;SDS011;16812;51.168;6.840;2022-08-04T13:14:15;4.00;;;2.65;;
29954;SDS011;16812;51.168;6.840;2022-08-04T13:16:55;4.20;;;3.08;;
29954;SDS011;16812;51.168;6.840;2022-08-04T13:19:23;7.68;;;3.38;;
29954;SDS011;16812;51.168;6.840;2022-08-04T13:21:50;8.23;;;3.47;;
29954;SDS011;16812;51.168;6.840;2022-08-04T13:24:33;6.28;;;2.63;;
29954;SDS011;16812;51.168;6.840;2022-08-04T13:27:21;5.38;;;2.80;;
29954;SDS011;16812;51.168;6.840;2022-08-04T13:29:50;3.33;;;2.40;;
29954;SDS011;16812;51.168;6.840;2022-08-04T13:32:28;8.68;;;2.95;;
29954;SDS011;16812;51.168;6.840;2022-08-04T13:34:56;8.20;;;3.42;;
29954;SDS011;16812;51.168;6.840;2022-08-04T13:37:24;11.25;;;3.45;;
29954;SDS011;16812;51.168;6.840;2022-08-04T13:39:54;4.57;;;2.88;;
29954;SDS011;16812;51.168;6.840;2022-08-04T13:42:23;8.50;;;3.22;;
29954;SDS011;16812;51.168;6.840;2022-08-04T13:44:52;6.43;;;3.20;;
29954;SDS011;16812;51.168;6.840;2022-08-04T13:47:21;4.35;;;3.15;;
29954;SDS011;16812;51.168;6.840;2022-08-04T13:52:38;11.07;;;2.80;;
29954;SDS011;16812;51.168;6.840;2022-08-04T13:55:07;5.05;;;3.05;;
29954;SDS011;16812;51.168;6.840;2022-08-04T13:57:35;4.03;;;2.83;;
29954;SDS011;16812;51.168;6.840;2022-08-04T14:00:09;7.22;;;3.72;;
29954;SDS011;16812;51.168;6.840;2022-08-04T14:02:38;3.40;;;2.80;;
29954;SDS011;16812;51.168;6.840;2022-08-04T14:05:07;4.68;;;2.70;;
29954;SDS011;16812;51.168;6.840;2022-08-04T14:07:45;3.10;;;2.63;;
29954;SDS011;16812;51.168;6.840;2022-08-04T14:10:14;5.28;;;2.47;;
29954;SDS011;16812;51.168;6.840;2022-08-04T14:12:44;4.88;;;2.80;;
29954;SDS011;16812;51.168;6.840;2022-08-04T14:15:28;4.78;;;2.33;;
29954;SDS011;16812;51.168;6.840;2022-08-04T14:18:17;5.07;;;2.50;;
29954;SDS011;16812;51.168;6.840;2022-08-04T14:20:56;4.93;;;2.80;;
29954;SDS011;16812;51.168;6.840;2022-08-04T14:23:23;6.80;;;2.20;;
29954;SDS011;16812;51.168;6.840;2022-08-04T14:26:00;4.45;;;2.70;;
29954;SDS011;16812;51.168;6.840;2022-08-04T14:28:38;6.30;;;2.53;;
29954;SDS011;16812;51.168;6.840;2022-08-04T14:31:26;3.33;;;2.40;;
29954;SDS011;16812;51.168;6.840;2022-08-04T14:33:56;9.90;;;2.83;;
29954;SDS011;16812;51.168;6.840;2022-08-04T14:36:38;6.05;;;3.13;;
29954;SDS011;16812;51.168;6.840;2022-08-04T14:39:38;3.17;;;2.50;;
29954;SDS011;16812;51.168;6.840;2022-08-04T14:42:06;12.45;;;2.80;;
29954;SDS011;16812;51.168;6.840;2022-08-04T14:47:16;4.57;;;2.80;;
29954;SDS011;16812;51.168;6.840;2022-08-04T14:49:52;6.00;;;2.45;;
29954;SDS011;16812;51.168;6.840;2022-08-04T14:52:21;4.03;;;2.40;;
29954;SDS011;16812;51.168;6.840;2022-08-04T14:54:49;3.85;;;3.00;;
29954;SDS011;16812;51.168;6.840;2022-08-04T14:57:18;6.57;;;2.70;;
29954;SDS011;16812;51.168;6.840;2022-08-04T14:59:46;5.13;;;2.53;;
29954;SDS011;16812;51.168;6.840;2022-08-04T15:02:27;6.00;;;3.15;;
29954;SDS011;16812;51.168;6.840;2022-08-04T15:04:55;5.72;;;3.03;;
29954;SDS011;16812;51.168;6.840;2022-08-04T15:07:23;8.20;;;3.72;;
29954;SDS011;16812;51.168;6.840;2022-08-04T15:09:50;7.63;;;3.30;;
29954;SDS011;16812;51.168;6.840;2022-08-04T15:12:19;6.53;;;2.90;;
29954;SDS011;16812;51.168;6.840;2022-08-04T15:14:47;6.28;;;3.38;;
29954;SDS011;16812;51.168;6.840;2022-08-04T15:17:14;6.15;;;3.33;;
29954;SDS011;16812;51.168;6.840;2022-08-04T15:19:55;6.63;;;3.07;;
29954;SDS011;16812;51.168;6.840;2022-08-04T15:22:22;5.43;;;2.53;;
29954;SDS011;16812;51.168;6.840;2022-08-04T15:24:49;6.40;;;2.67;;
29954;SDS011;16812;51.168;6.840;2022-08-04T15:27:21;6.63;;;3.17;;
29954;SDS011;16812;51.168;6.840;2022-08-04T15:29:49;4.38;;;2.80;;
29954;SDS011;16812;51.168;6.840;2022-08-04T15:32:27;11.77;;;3.07;;
29954;SDS011;16812;51.168;6.840;2022-08-04T15:35:00;5.53;;;2.90;;
29954;SDS011;16812;51.168;6.840;2022-08-04T15:37:28;7.00;;;3.63;;
29954;SDS011;16812;51.168;6.840;2022-08-04T15:39:57;5.30;;;3.03;;
29954;SDS011;16812;51.168;6.840;2022-08-04T15:42:30;6.30;;;3.30;;
29954;SDS011;16812;51.168;6.840;2022-08-04T15:45:17;4.83;;;3.07;;
29954;SDS011;16812;51.168;6.840;2022-08-04T15:50:31;6.30;;;3.00;;
29954;SDS011;16812;51.168;6.840;2022-08-04T15:52:59;6.30;;;3.40;;
29954;SDS011;16812;51.168;6.840;2022-08-04T15:55:39;5.18;;;2.80;;
29954;SDS011;16812;51.168;6.840;2022-08-04T15:58:09;6.50;;;3.70;;
29954;SDS011;16812;51.168;6.840;2022-08-04T16:03:41;10.53;;;3.70;;
29954;SDS011;16812;51.168;6.840;2022-08-04T16:06:40;6.97;;;3.10;;
29954;SDS011;16812;51.168;6.840;2022-08-04T16:09:07;10.60;;;3.47;;